sensor_id;sensor_type;location;lat;lon;timestamp;pressure;altitude;pressure_sealevel;temperature;humidity
20971;BME280;10644;48.834;10.088;2022-07-17T00:02:20;97494.69;;;22.98;40.29
20971;BME280;10644;48.834;10.088;2022-07-17T00:04:47;97490.28;;;22.89;40.44
20971;BME280;10644;48.834;10.088;2022-07-17T00:07:13;97486.69;;;22.80;40.62
20971;BME280;10644;48.834;10.088;2022-07-17T00:09:38;97486.00;;;22.88;40.53
20971;BME280;10644;48.834;10.088;2022-07-17T00:12:04;97491.78;;;22.91;40.54
20971;BME280;10644;48.834;10.088;2022-07-17T00:14:31;97489.03;;;22.93;40.69
20971;BME280;10644;48.834;10.088;2022-07-17T00:16:57;97490.69;;;22.94;40.42
20971;BME280;10644;48.834;10.088;2022-07-17T00:19:24;97487.53;;;22.90;40.50
20971;BME280;10644;48.834;10.088;2022-07-17T00:21:50;97482.69;;;22.86;40.40
20971;BME280;10644;48.834;10.088;2022-07-17T00:24:15;97487.13;;;22.76;40.50
20971;BME280;10644;48.834;10.088;2022-07-17T00:26:50;97490.97;;;22.72;40.54
20971;BME280;10644;48.834;10.088;2022-07-17T00:29:16;97486.97;;;22.58;41.03
20971;BME280;10644;48.834;10.088;2022-07-17T00:31:42;97487.38;;;22.44;41.51
20971;BME280;10644;48.834;10.088;2022-07-17T00:34:08;97487.38;;;22.44;41.26
20971;BME280;10644;48.834;10.088;2022-07-17T00:36:33;97485.56;;;22.45;41.20
20971;BME280;10644;48.834;10.088;2022-07-17T00:38:59;97490.09;;;22.43;41.43
20971;BME280;10644;48.834;10.088;2022-07-17T00:41:24;97491.94;;;22.12;41.34
20971;BME280;10644;48.834;10.088;2022-07-17T00:43:49;97490.97;;;22.13;41.69
20971;BME280;10644;48.834;10.088;2022-07-17T00:46:15;97494.56;;;22.22;41.58
20971;BME280;10644;48.834;10.088;2022-07-17T00:48:40;97497.19;;;22.22;41.58
20971;BME280;10644;48.834;10.088;2022-07-17T00:51:06;97496.84;;;22.06;41.83
20971;BME280;10644;48.834;10.088;2022-07-17T00:53:33;97493.81;;;22.01;41.98
20971;BME280;10644;48.834;10.088;2022-07-17T00:56:02;97485.84;;;22.02;41.96
20971;BME280;10644;48.834;10.088;2022-07-17T00:58:28;97487.25;;;22.06;41.81
20971;BME280;10644;48.834;10.088;2022-07-17T01:00:55;97492.84;;;22.02;42.00
20971;BME280;10644;48.834;10.088;2022-07-17T01:03:22;97486.94;;;22.00;41.86
20971;BME280;10644;48.834;10.088;2022-07-17T01:05:49;97496.81;;;21.87;42.35
20971;BME280;10644;48.834;10.088;2022-07-17T01:08:15;97502.72;;;21.89;42.28
20971;BME280;10644;48.834;10.088;2022-07-17T01:10:41;97490.47;;;21.80;43.04
20971;BME280;10644;48.834;10.088;2022-07-17T01:13:06;97495.91;;;21.67;42.56
20971;BME280;10644;48.834;10.088;2022-07-17T01:15:35;97493.31;;;21.47;43.30
20971;BME280;10644;48.834;10.088;2022-07-17T01:18:04;97497.03;;;21.54;43.03
20971;BME280;10644;48.834;10.088;2022-07-17T01:20:32;97500.16;;;21.48;42.98
20971;BME280;10644;48.834;10.088;2022-07-17T01:22:59;97498.75;;;21.44;43.13
20971;BME280;10644;48.834;10.088;2022-07-17T01:25:26;97499.06;;;21.50;43.00
20971;BME280;10644;48.834;10.088;2022-07-17T01:27:51;97493.63;;;21.33;43.34
20971;BME280;10644;48.834;10.088;2022-07-17T01:30:18;97487.72;;;21.31;43.42
20971;BME280;10644;48.834;10.088;2022-07-17T01:32:44;97495.53;;;20.90;44.53
20971;BME280;10644;48.834;10.088;2022-07-17T01:35:12;97491.59;;;20.95;44.02
20971;BME280;10644;48.834;10.088;2022-07-17T01:37:38;97489.03;;;21.05;44.27
20971;BME280;10644;48.834;10.088;2022-07-17T01:40:08;97494.66;;;21.21;43.81
20971;BME280;10644;48.834;10.088;2022-07-17T01:42:35;97490.38;;;21.20;43.65
20971;BME280;10644;48.834;10.088;2022-07-17T01:45:01;97489.88;;;21.26;43.53
20971;BME280;10644;48.834;10.088;2022-07-17T01:47:34;97489.88;;;21.05;43.43
20971;BME280;10644;48.834;10.088;2022-07-17T01:50:01;97500.19;;;21.07;43.69
20971;BME280;10644;48.834;10.088;2022-07-17T01:52:28;97496.22;;;21.12;43.68
20971;BME280;10644;48.834;10.088;2022-07-17T01:54:53;97494.72;;;21.10;43.55
20971;BME280;10644;48.834;10.088;2022-07-17T01:57:19;97488.81;;;21.08;43.42
20971;BME280;10644;48.834;10.088;2022-07-17T01:59:45;97494.72;;;21.10;43.26
20971;BME280;10644;48.834;10.088;2022-07-17T02:02:10;97489.81;;;20.96;44.04
20971;BME280;10644;48.834;10.088;2022-07-17T02:04:39;97492.09;;;21.10;43.91
20971;BME280;10644;48.834;10.088;2022-07-17T02:07:07;97498.00;;;21.12;43.97
20971;BME280;10644;48.834;10.088;2022-07-17T02:09:33;97498.44;;;21.17;43.65
20971;BME280;10644;48.834;10.088;2022-07-17T02:12:02;97495.84;;;21.17;43.34
20971;BME280;10644;48.834;10.088;2022-07-17T02:14:30;97492.44;;;20.96;43.95
20971;BME280;10644;48.834;10.088;2022-07-17T02:16:55;97494.06;;;20.97;44.08
20971;BME280;10644;48.834;10.088;2022-07-17T02:19:20;97490.31;;;20.90;44.00
20971;BME280;10644;48.834;10.088;2022-07-17T02:21:49;97495.84;;;20.96;43.61
20971;BME280;10644;48.834;10.088;2022-07-17T02:24:15;97492.94;;;20.90;44.10
20971;BME280;10644;48.834;10.088;2022-07-17T02:26:40;97488.78;;;20.87;43.91
20971;BME280;10644;48.834;10.088;2022-07-17T02:29:05;97497.91;;;20.82;44.16
20971;BME280;10644;48.834;10.088;2022-07-17T02:31:31;97497.13;;;20.70;44.44
20971;BME280;10644;48.834;10.088;2022-07-17T02:33:56;97493.91;;;20.67;44.42
20971;BME280;10644;48.834;10.088;2022-07-17T02:36:22;97488.38;;;20.71;44.23
20971;BME280;10644;48.834;10.088;2022-07-17T02:38:48;97484.41;;;20.77;44.31
20971;BME280;10644;48.834;10.088;2022-07-17T02:41:14;97486.31;;;20.75;44.19
20971;BME280;10644;48.834;10.088;2022-07-17T02:43:43;97487.53;;;20.71;44.22
20971;BME280;10644;48.834;10.088;2022-07-17T02:46:11;97485.81;;;20.60;44.37
20971;BME280;10644;48.834;10.088;2022-07-17T02:48:39;97486.59;;;20.61;44.52
20971;BME280;10644;48.834;10.088;2022-07-17T02:51:04;97483.06;;;20.62;44.18
20971;BME280;10644;48.834;10.088;2022-07-17T02:53:30;97485.53;;;20.63;44.21
20971;BME280;10644;48.834;10.088;2022-07-17T02:55:55;97488.28;;;20.62;44.20
20971;BME280;10644;48.834;10.088;2022-07-17T02:58:22;97485.91;;;20.59;44.42
20971;BME280;10644;48.834;10.088;2022-07-17T03:00:47;97477.84;;;20.30;44.83
20971;BME280;10644;48.834;10.088;2022-07-17T03:03:13;97483.03;;;20.30;45.06
20971;BME280;10644;48.834;10.088;2022-07-17T03:05:39;97482.25;;;20.19;45.17
20971;BME280;10644;48.834;10.088;2022-07-17T03:08:04;97483.22;;;20.18;45.10
20971;BME280;10644;48.834;10.088;2022-07-17T03:10:34;97473.72;;;20.28;44.87
20971;BME280;10644;48.834;10.088;2022-07-17T03:12:59;97478.56;;;20.32;44.97
20971;BME280;10644;48.834;10.088;2022-07-17T03:15:24;97471.56;;;20.33;44.88
20971;BME280;10644;48.834;10.088;2022-07-17T03:17:51;97468.03;;;20.34;45.01
20971;BME280;10644;48.834;10.088;2022-07-17T03:20:16;97477.97;;;20.29;45.09
20971;BME280;10644;48.834;10.088;2022-07-17T03:22:41;97468.63;;;20.26;45.20
20971;BME280;10644;48.834;10.088;2022-07-17T03:25:07;97476.06;;;20.31;45.14
20971;BME280;10644;48.834;10.088;2022-07-17T03:27:33;97474.78;;;20.25;45.13
20971;BME280;10644;48.834;10.088;2022-07-17T03:30:00;97474.19;;;20.22;45.15
20971;BME280;10644;48.834;10.088;2022-07-17T03:32:25;97478.69;;;20.20;45.08
20971;BME280;10644;48.834;10.088;2022-07-17T03:34:53;97483.44;;;20.15;45.20
20971;BME280;10644;48.834;10.088;2022-07-17T03:37:18;97477.53;;;20.02;45.46
20971;BME280;10644;48.834;10.088;2022-07-17T03:39:44;97489.47;;;20.04;45.23
20971;BME280;10644;48.834;10.088;2022-07-17T03:42:09;97485.00;;;20.06;45.13
20971;BME280;10644;48.834;10.088;2022-07-17T03:44:34;97476.22;;;20.07;45.52
20971;BME280;10644;48.834;10.088;2022-07-17T03:47:00;97473.88;;;19.93;45.64
20971;BME280;10644;48.834;10.088;2022-07-17T03:49:31;97482.28;;;19.86;45.49
20971;BME280;10644;48.834;10.088;2022-07-17T03:51:56;97483.09;;;19.86;45.83
20971;BME280;10644;48.834;10.088;2022-07-17T03:54:22;97488.91;;;19.90;45.61
20971;BME280;10644;48.834;10.088;2022-07-17T03:56:48;97483.69;;;19.90;45.80
20971;BME280;10644;48.834;10.088;2022-07-17T03:59:13;97482.03;;;19.89;45.50
20971;BME280;10644;48.834;10.088;2022-07-17T04:01:39;97484.50;;;19.90;45.15
20971;BME280;10644;48.834;10.088;2022-07-17T04:04:05;97485.47;;;19.78;45.77
20971;BME280;10644;48.834;10.088;2022-07-17T04:06:43;97484.66;;;19.67;45.79
20971;BME280;10644;48.834;10.088;2022-07-17T04:09:08;97491.38;;;19.36;46.57
20971;BME280;10644;48.834;10.088;2022-07-17T04:11:33;97484.50;;;19.24;46.75
20971;BME280;10644;48.834;10.088;2022-07-17T04:14:00;97494.75;;;19.26;47.13
20971;BME280;10644;48.834;10.088;2022-07-17T04:16:25;97494.28;;;19.32;46.72
20971;BME280;10644;48.834;10.088;2022-07-17T04:18:50;97488.78;;;19.36;46.67
20971;BME280;10644;48.834;10.088;2022-07-17T04:21:17;97492.16;;;19.26;46.83
20971;BME280;10644;48.834;10.088;2022-07-17T04:23:42;97489.81;;;19.23;47.14
20971;BME280;10644;48.834;10.088;2022-07-17T04:26:09;97501.03;;;19.34;47.17
20971;BME280;10644;48.834;10.088;2022-07-17T04:28:35;97496.91;;;19.43;46.74
20971;BME280;10644;48.834;10.088;2022-07-17T04:31:01;97488.63;;;19.49;46.77
20971;BME280;10644;48.834;10.088;2022-07-17T04:33:28;97481.56;;;19.51;46.81
20971;BME280;10644;48.834;10.088;2022-07-17T04:35:54;97481.78;;;19.48;46.96
20971;BME280;10644;48.834;10.088;2022-07-17T04:38:19;97489.72;;;19.35;47.51
20971;BME280;10644;48.834;10.088;2022-07-17T04:40:46;97488.69;;;19.14;47.97
20971;BME280;10644;48.834;10.088;2022-07-17T04:43:11;97477.41;;;18.92;48.24
20971;BME280;10644;48.834;10.088;2022-07-17T04:45:39;97498.47;;;19.00;48.29
20971;BME280;10644;48.834;10.088;2022-07-17T04:48:05;97498.94;;;19.05;48.40
20971;BME280;10644;48.834;10.088;2022-07-17T04:50:31;97505.91;;;19.04;48.46
20971;BME280;10644;48.834;10.088;2022-07-17T04:52:58;97494.94;;;19.12;48.32
20971;BME280;10644;48.834;10.088;2022-07-17T04:55:26;97490.00;;;19.20;48.19
20971;BME280;10644;48.834;10.088;2022-07-17T04:57:51;97494.31;;;19.21;48.40
20971;BME280;10644;48.834;10.088;2022-07-17T05:00:16;97499.63;;;19.30;47.88
20971;BME280;10644;48.834;10.088;2022-07-17T05:02:45;97498.91;;;19.39;47.45
20971;BME280;10644;48.834;10.088;2022-07-17T05:05:11;97501.16;;;19.22;47.85
20971;BME280;10644;48.834;10.088;2022-07-17T05:07:36;97511.94;;;19.05;48.55
20971;BME280;10644;48.834;10.088;2022-07-17T05:10:03;97505.34;;;19.12;48.62
20971;BME280;10644;48.834;10.088;2022-07-17T05:12:35;97500.16;;;19.12;48.16
20971;BME280;10644;48.834;10.088;2022-07-17T05:15:04;97510.16;;;19.05;48.00
20971;BME280;10644;48.834;10.088;2022-07-17T05:17:29;97508.41;;;19.06;48.68
20971;BME280;10644;48.834;10.088;2022-07-17T05:19:55;97502.78;;;19.23;47.75
20971;BME280;10644;48.834;10.088;2022-07-17T05:22:20;97502.28;;;19.18;48.03
20971;BME280;10644;48.834;10.088;2022-07-17T05:24:47;97497.31;;;19.15;48.15
20971;BME280;10644;48.834;10.088;2022-07-17T05:27:12;97493.09;;;19.25;47.58
20971;BME280;10644;48.834;10.088;2022-07-17T05:29:37;97504.88;;;19.18;48.16
20971;BME280;10644;48.834;10.088;2022-07-17T05:32:04;97499.69;;;19.18;48.02
20971;BME280;10644;48.834;10.088;2022-07-17T05:34:32;97501.97;;;19.22;47.79
20971;BME280;10644;48.834;10.088;2022-07-17T05:37:00;97500.56;;;19.40;47.41
20971;BME280;10644;48.834;10.088;2022-07-17T05:39:25;97505.16;;;19.37;47.70
20971;BME280;10644;48.834;10.088;2022-07-17T05:41:50;97487.94;;;19.36;47.67
20971;BME280;10644;48.834;10.088;2022-07-17T05:44:16;97503.53;;;19.47;47.90
20971;BME280;10644;48.834;10.088;2022-07-17T05:46:41;97502.59;;;19.48;48.21
20971;BME280;10644;48.834;10.088;2022-07-17T05:49:07;97487.84;;;19.59;47.55
20971;BME280;10644;48.834;10.088;2022-07-17T05:51:32;97492.56;;;19.65;47.45
20971;BME280;10644;48.834;10.088;2022-07-17T05:53:57;97493.25;;;19.67;47.57
20971;BME280;10644;48.834;10.088;2022-07-17T05:56:24;97493.50;;;19.86;47.23
20971;BME280;10644;48.834;10.088;2022-07-17T05:58:49;97491.84;;;20.07;46.65
20971;BME280;10644;48.834;10.088;2022-07-17T06:01:16;97489.34;;;20.06;46.56
20971;BME280;10644;48.834;10.088;2022-07-17T06:03:42;97496.09;;;20.19;46.33
20971;BME280;10644;48.834;10.088;2022-07-17T06:06:07;97492.63;;;20.30;46.05
20971;BME280;10644;48.834;10.088;2022-07-17T06:08:35;97483.66;;;20.34;45.28
20971;BME280;10644;48.834;10.088;2022-07-17T06:11:00;97484.22;;;20.37;45.39
20971;BME280;10644;48.834;10.088;2022-07-17T06:13:25;97486.59;;;20.61;44.76
20971;BME280;10644;48.834;10.088;2022-07-17T06:15:52;97488.16;;;20.84;44.36
20971;BME280;10644;48.834;10.088;2022-07-17T06:18:17;97486.50;;;20.62;43.91
20971;BME280;10644;48.834;10.088;2022-07-17T06:20:44;97492.41;;;20.64;44.30
20971;BME280;10644;48.834;10.088;2022-07-17T06:23:09;97486.28;;;20.86;43.38
20971;BME280;10644;48.834;10.088;2022-07-17T06:25:36;97482.31;;;20.71;43.84
20971;BME280;10644;48.834;10.088;2022-07-17T06:28:02;97493.13;;;20.87;43.46
20971;BME280;10644;48.834;10.088;2022-07-17T06:30:27;97499.91;;;21.10;43.05
20971;BME280;10644;48.834;10.088;2022-07-17T06:32:53;97493.13;;;21.18;43.29
20971;BME280;10644;48.834;10.088;2022-07-17T06:35:24;97489.88;;;21.26;43.60
20971;BME280;10644;48.834;10.088;2022-07-17T06:37:54;97499.38;;;21.57;42.94
20971;BME280;10644;48.834;10.088;2022-07-17T06:40:19;97502.94;;;21.56;42.55
20971;BME280;10644;48.834;10.088;2022-07-17T06:42:44;97506.78;;;21.52;42.47
20971;BME280;10644;48.834;10.088;2022-07-17T06:45:23;97506.19;;;21.48;43.11
20971;BME280;10644;48.834;10.088;2022-07-17T06:47:48;97508.44;;;21.53;43.38
20971;BME280;10644;48.834;10.088;2022-07-17T06:50:13;97499.44;;;21.66;43.10
20971;BME280;10644;48.834;10.088;2022-07-17T06:52:39;97504.06;;;21.83;42.74
20971;BME280;10644;48.834;10.088;2022-07-17T06:55:05;97496.53;;;21.90;42.50
20971;BME280;10644;48.834;10.088;2022-07-17T06:57:31;97507.28;;;21.96;41.87
20971;BME280;10644;48.834;10.088;2022-07-17T06:59:56;97512.63;;;21.95;41.83
20971;BME280;10644;48.834;10.088;2022-07-17T07:02:25;97506.50;;;22.15;41.64
20971;BME280;10644;48.834;10.088;2022-07-17T07:04:51;97508.78;;;21.99;41.68
20971;BME280;10644;48.834;10.088;2022-07-17T07:07:17;97517.38;;;22.20;41.12
20971;BME280;10644;48.834;10.088;2022-07-17T07:09:47;97519.72;;;22.32;40.98
20971;BME280;10644;48.834;10.088;2022-07-17T07:12:15;97508.84;;;22.27;41.67
20971;BME280;10644;48.834;10.088;2022-07-17T07:14:40;97504.22;;;22.31;41.28
20971;BME280;10644;48.834;10.088;2022-07-17T07:17:06;97502.75;;;22.47;40.59
20971;BME280;10644;48.834;10.088;2022-07-17T07:19:32;97506.22;;;22.48;40.26
20971;BME280;10644;48.834;10.088;2022-07-17T07:21:57;97511.56;;;22.46;40.39
20971;BME280;10644;48.834;10.088;2022-07-17T07:24:24;97506.34;;;22.56;40.42
20971;BME280;10644;48.834;10.088;2022-07-17T07:26:50;97505.28;;;22.87;39.63
20971;BME280;10644;48.834;10.088;2022-07-17T07:29:17;97510.50;;;22.87;39.32
20971;BME280;10644;48.834;10.088;2022-07-17T07:31:43;97515.31;;;22.91;39.56
20971;BME280;10644;48.834;10.088;2022-07-17T07:34:12;97502.53;;;22.98;39.01
20971;BME280;10644;48.834;10.088;2022-07-17T07:36:46;97500.84;;;22.97;38.96
20971;BME280;10644;48.834;10.088;2022-07-17T07:39:19;97503.59;;;23.24;38.66
20971;BME280;10644;48.834;10.088;2022-07-17T07:41:44;97502.44;;;23.55;37.75
20971;BME280;10644;48.834;10.088;2022-07-17T07:44:09;97503.47;;;23.71;37.95
20971;BME280;10644;48.834;10.088;2022-07-17T07:46:39;97498.75;;;23.94;37.20
20971;BME280;10644;48.834;10.088;2022-07-17T07:49:08;97508.28;;;24.12;37.81
20971;BME280;10644;48.834;10.088;2022-07-17T07:51:41;97499.97;;;24.26;36.80
20971;BME280;10644;48.834;10.088;2022-07-17T07:54:07;97509.06;;;24.22;36.85
20971;BME280;10644;48.834;10.088;2022-07-17T07:56:37;97512.31;;;24.34;37.30
20971;BME280;10644;48.834;10.088;2022-07-17T07:59:04;97514.22;;;24.41;38.01
20971;BME280;10644;48.834;10.088;2022-07-17T08:01:30;97508.97;;;24.41;38.35
20971;BME280;10644;48.834;10.088;2022-07-17T08:03:55;97515.56;;;24.45;37.83
20971;BME280;10644;48.834;10.088;2022-07-17T08:06:21;97515.78;;;24.52;37.94
20971;BME280;10644;48.834;10.088;2022-07-17T08:08:46;97527.81;;;24.72;37.54
20971;BME280;10644;48.834;10.088;2022-07-17T08:11:12;97522.66;;;24.80;37.53
20971;BME280;10644;48.834;10.088;2022-07-17T08:13:39;97531.72;;;24.41;37.88
20971;BME280;10644;48.834;10.088;2022-07-17T08:16:06;97516.06;;;24.49;37.73
20971;BME280;10644;48.834;10.088;2022-07-17T08:18:31;97527.97;;;24.88;37.45
20971;BME280;10644;48.834;10.088;2022-07-17T08:20:56;97525.28;;;25.15;36.86
20971;BME280;10644;48.834;10.088;2022-07-17T08:23:29;97526.31;;;25.22;36.75
20971;BME280;10644;48.834;10.088;2022-07-17T08:25:56;97532.47;;;25.13;36.66
20971;BME280;10644;48.834;10.088;2022-07-17T08:28:22;97529.34;;;25.27;36.56
20971;BME280;10644;48.834;10.088;2022-07-17T08:30:48;97526.78;;;25.35;35.49
20971;BME280;10644;48.834;10.088;2022-07-17T08:33:14;97520.47;;;25.10;35.72
20971;BME280;10644;48.834;10.088;2022-07-17T08:35:41;97520.56;;;25.36;35.59
20971;BME280;10644;48.834;10.088;2022-07-17T08:38:09;97516.81;;;25.64;35.75
20971;BME280;10644;48.834;10.088;2022-07-17T08:40:37;97530.81;;;25.72;35.32
20971;BME280;10644;48.834;10.088;2022-07-17T08:43:08;97531.72;;;25.38;35.77
20971;BME280;10644;48.834;10.088;2022-07-17T08:45:34;97525.97;;;25.60;35.63
20971;BME280;10644;48.834;10.088;2022-07-17T08:48:03;97529.06;;;25.81;35.04
20971;BME280;10644;48.834;10.088;2022-07-17T08:50:39;97512.84;;;26.19;34.88
20971;BME280;10644;48.834;10.088;2022-07-17T08:53:05;97518.03;;;26.52;33.78
20971;BME280;10644;48.834;10.088;2022-07-17T08:55:31;97522.88;;;26.73;33.15
20971;BME280;10644;48.834;10.088;2022-07-17T08:57:57;97523.72;;;26.32;33.37
20971;BME280;10644;48.834;10.088;2022-07-17T09:00:28;97523.41;;;26.35;33.13
20971;BME280;10644;48.834;10.088;2022-07-17T09:03:05;97519.19;;;26.50;33.42
20971;BME280;10644;48.834;10.088;2022-07-17T09:05:33;97520.22;;;26.57;32.96
20971;BME280;10644;48.834;10.088;2022-07-17T09:08:18;97521.69;;;26.59;33.55
20971;BME280;10644;48.834;10.088;2022-07-17T09:10:47;97524.69;;;26.64;32.48
20971;BME280;10644;48.834;10.088;2022-07-17T09:13:26;97519.56;;;26.63;32.96
20971;BME280;10644;48.834;10.088;2022-07-17T09:15:54;97529.31;;;26.78;32.49
20971;BME280;10644;48.834;10.088;2022-07-17T09:18:21;97528.19;;;27.13;32.19
20971;BME280;10644;48.834;10.088;2022-07-17T09:20:49;97520.66;;;27.34;31.79
20971;BME280;10644;48.834;10.088;2022-07-17T09:23:15;97514.72;;;27.16;31.80
20971;BME280;10644;48.834;10.088;2022-07-17T09:25:46;97519.28;;;27.14;32.21
20971;BME280;10644;48.834;10.088;2022-07-17T09:28:23;97523.31;;;27.26;31.63
20971;BME280;10644;48.834;10.088;2022-07-17T09:30:54;97517.72;;;27.37;31.55
20971;BME280;10644;48.834;10.088;2022-07-17T09:33:22;97520.00;;;27.40;31.33
20971;BME280;10644;48.834;10.088;2022-07-17T09:36:19;97511.78;;;27.43;30.98
20971;BME280;10644;48.834;10.088;2022-07-17T09:38:45;97510.09;;;27.42;30.87
20971;BME280;10644;48.834;10.088;2022-07-17T09:44:25;97507.16;;;27.45;30.56
20971;BME280;10644;48.834;10.088;2022-07-17T09:46:51;97507.16;;;27.45;30.03
20971;BME280;10644;48.834;10.088;2022-07-17T09:49:17;97508.13;;;27.60;29.73
20971;BME280;10644;48.834;10.088;2022-07-17T09:51:44;97509.91;;;27.83;29.70
20971;BME280;10644;48.834;10.088;2022-07-17T09:54:21;97509.63;;;28.17;29.41
20971;BME280;10644;48.834;10.088;2022-07-17T09:56:55;97504.31;;;28.25;28.72
20971;BME280;10644;48.834;10.088;2022-07-17T09:59:26;97509.56;;;28.25;28.50
20971;BME280;10644;48.834;10.088;2022-07-17T10:01:54;97512.38;;;27.93;29.09
20971;BME280;10644;48.834;10.088;2022-07-17T10:04:19;97494.88;;;28.00;28.96
20971;BME280;10644;48.834;10.088;2022-07-17T10:06:45;97508.56;;;28.34;28.51
20971;BME280;10644;48.834;10.088;2022-07-17T10:09:18;97492.31;;;28.53;28.13
20971;BME280;10644;48.834;10.088;2022-07-17T10:11:45;97495.03;;;28.45;28.26
20971;BME280;10644;48.834;10.088;2022-07-17T10:14:12;97502.88;;;28.53;27.73
20971;BME280;10644;48.834;10.088;2022-07-17T10:16:39;97493.03;;;28.47;26.95
20971;BME280;10644;48.834;10.088;2022-07-17T10:19:21;97494.22;;;28.67;26.67
20971;BME280;10644;48.834;10.088;2022-07-17T10:22:04;97488.19;;;28.58;26.66
20971;BME280;10644;48.834;10.088;2022-07-17T10:24:56;97494.66;;;28.48;27.10
20971;BME280;10644;48.834;10.088;2022-07-17T10:27:26;97495.50;;;28.71;26.63
20971;BME280;10644;48.834;10.088;2022-07-17T10:32:31;97492.06;;;29.52;26.39
20971;BME280;10644;48.834;10.088;2022-07-17T10:35:10;97484.69;;;29.48;25.80
20971;BME280;10644;48.834;10.088;2022-07-17T10:45:12;97484.25;;;30.31;24.79
20971;BME280;10644;48.834;10.088;2022-07-17T10:47:50;97471.16;;;30.59;24.97
20971;BME280;10644;48.834;10.088;2022-07-17T10:50:24;97461.38;;;30.59;24.71
20971;BME280;10644;48.834;10.088;2022-07-17T10:53:05;97471.53;;;30.56;24.70
20971;BME280;10644;48.834;10.088;2022-07-17T10:55:35;97467.22;;;30.69;24.88
20971;BME280;10644;48.834;10.088;2022-07-17T10:58:38;97475.03;;;30.42;25.12
20971;BME280;10644;48.834;10.088;2022-07-17T11:01:15;97468.31;;;30.25;25.43
20971;BME280;10644;48.834;10.088;2022-07-17T11:03:56;97471.75;;;30.40;24.72
20971;BME280;10644;48.834;10.088;2022-07-17T11:06:35;97472.81;;;31.02;23.98
20971;BME280;10644;48.834;10.088;2022-07-17T11:11:38;97479.69;;;30.75;23.92
20971;BME280;10644;48.834;10.088;2022-07-17T11:14:23;97474.84;;;30.79;24.12
20971;BME280;10644;48.834;10.088;2022-07-17T11:16:53;97475.63;;;30.94;23.72
20971;BME280;10644;48.834;10.088;2022-07-17T11:19:40;97472.19;;;31.00;23.81
20971;BME280;10644;48.834;10.088;2022-07-17T11:22:12;97469.81;;;31.26;22.91
20971;BME280;10644;48.834;10.088;2022-07-17T11:24:50;97462.97;;;31.38;23.00
20971;BME280;10644;48.834;10.088;2022-07-17T11:27:42;97464.44;;;30.98;22.49
20971;BME280;10644;48.834;10.088;2022-07-17T11:30:15;97460.28;;;30.68;23.00
20971;BME280;10644;48.834;10.088;2022-07-17T11:32:43;97455.44;;;31.14;22.83
20971;BME280;10644;48.834;10.088;2022-07-17T11:35:19;97460.03;;;31.54;23.24
20971;BME280;10644;48.834;10.088;2022-07-17T11:37:56;97453.03;;;31.74;22.47
20971;BME280;10644;48.834;10.088;2022-07-17T11:40:23;97447.03;;;31.93;22.54
20971;BME280;10644;48.834;10.088;2022-07-17T11:42:58;97442.53;;;31.87;23.08
20971;BME280;10644;48.834;10.088;2022-07-17T11:45:26;97442.47;;;31.80;22.51
20971;BME280;10644;48.834;10.088;2022-07-17T11:47:51;97440.19;;;32.18;22.63
20971;BME280;10644;48.834;10.088;2022-07-17T11:50:19;97441.53;;;32.48;21.69
20971;BME280;10644;48.834;10.088;2022-07-17T11:52:47;97438.09;;;32.54;21.36
20971;BME280;10644;48.834;10.088;2022-07-17T11:55:18;97447.25;;;32.32;22.38
20971;BME280;10644;48.834;10.088;2022-07-17T11:57:47;97435.88;;;32.64;21.75
20971;BME280;10644;48.834;10.088;2022-07-17T12:00:14;97435.38;;;32.34;21.77
20971;BME280;10644;48.834;10.088;2022-07-17T12:02:40;97433.97;;;32.32;21.96
20971;BME280;10644;48.834;10.088;2022-07-17T12:05:08;97437.28;;;32.00;21.99
20971;BME280;10644;48.834;10.088;2022-07-17T12:07:43;97428.63;;;31.85;22.61
20971;BME280;10644;48.834;10.088;2022-07-17T12:10:23;97429.47;;;31.92;22.69
20971;BME280;10644;48.834;10.088;2022-07-17T12:12:58;97433.56;;;31.88;22.64
20971;BME280;10644;48.834;10.088;2022-07-17T12:18:29;97427.81;;;31.84;22.49
20971;BME280;10644;48.834;10.088;2022-07-17T12:20:58;97430.53;;;31.97;21.94
20971;BME280;10644;48.834;10.088;2022-07-17T12:23:35;97425.16;;;32.25;22.57
20971;BME280;10644;48.834;10.088;2022-07-17T12:26:13;97440.03;;;32.26;21.32
20971;BME280;10644;48.834;10.088;2022-07-17T12:28:40;97435.66;;;32.05;21.79
20971;BME280;10644;48.834;10.088;2022-07-17T12:31:07;97431.31;;;32.32;21.51
20971;BME280;10644;48.834;10.088;2022-07-17T12:33:33;97434.97;;;32.31;22.13
20971;BME280;10644;48.834;10.088;2022-07-17T12:35:58;97434.56;;;32.34;21.72
20971;BME280;10644;48.834;10.088;2022-07-17T12:38:25;97435.59;;;32.33;21.14
20971;BME280;10644;48.834;10.088;2022-07-17T12:40:50;97438.91;;;32.41;21.26
20971;BME280;10644;48.834;10.088;2022-07-17T12:43:16;97431.00;;;32.74;21.39
20971;BME280;10644;48.834;10.088;2022-07-17T12:45:41;97431.69;;;33.28;20.95
20971;BME280;10644;48.834;10.088;2022-07-17T12:48:06;97431.84;;;33.52;20.79
20971;BME280;10644;48.834;10.088;2022-07-17T12:50:32;97435.66;;;33.89;20.31
20971;BME280;10644;48.834;10.088;2022-07-17T12:52:58;97430.81;;;33.21;20.82
20971;BME280;10644;48.834;10.088;2022-07-17T12:55:23;97433.69;;;33.13;21.10
20971;BME280;10644;48.834;10.088;2022-07-17T12:57:49;97432.25;;;32.91;20.86
20971;BME280;10644;48.834;10.088;2022-07-17T13:00:14;97423.25;;;33.44;20.88
20971;BME280;10644;48.834;10.088;2022-07-17T13:02:39;97418.69;;;33.77;20.93
20971;BME280;10644;48.834;10.088;2022-07-17T13:05:05;97422.00;;;33.79;20.34
20971;BME280;10644;48.834;10.088;2022-07-17T13:07:31;97431.63;;;33.54;20.97
20971;BME280;10644;48.834;10.088;2022-07-17T13:09:57;97431.84;;;33.65;20.77
20971;BME280;10644;48.834;10.088;2022-07-17T13:12:22;97425.69;;;33.65;20.76
20971;BME280;10644;48.834;10.088;2022-07-17T13:14:48;97431.63;;;33.67;20.30